Time;durP1;ratioP1;P1;durP2;ratioP2;P2;SDS_P1;SDS_P2;PMS_P1;PMS_P2;Temp;Humidity;BMP_temperature;BMP_pressure;BME280_temperature;BME280_humidity;BME280_pressure;Samples;Min_cycle;Max_cycle;Signal;HPM_P1;HPM_P2
2022/11/07 00:02:10;;;;;;;28.55;17.27;;;10.40;99.90;;;;;;5155908;27;19922;-67
2022/11/07 00:04:37;;;;;;;29.48;17.30;;;10.20;99.90;;;;;;5155931;27;20061;-69
2022/11/07 00:07:02;;;;;;;;;;;10.00;99.90;;;;;;5156657;27;20079;-66
2022/11/07 00:09:28;;;;;;;32.40;17.85;;;10.30;99.90;;;;;;5155910;27;20385;-66
2022/11/07 00:11:54;;;;;;;28.73;16.33;;;10.20;99.90;;;;;;5155811;27;20046;-65
2022/11/07 00:14:20;;;;;;;23.33;16.38;;;10.00;99.90;;;;;;5155852;27;20035;-66
2022/11/07 00:16:46;;;;;;;24.23;15.05;;;9.70;99.90;;;;;;5155667;27;20482;-69
2022/11/07 00:19:15;;;;;;;23.83;14.85;;;10.50;99.90;;;;;;5155743;27;20081;-66
2022/11/07 00:21:41;;;;;;;20.92;14.02;;;10.40;99.90;;;;;;5155550;27;20054;-70
2022/11/07 00:24:08;;;;;;;21.02;13.98;;;10.70;99.90;;;;;;5155248;27;20448;-66
2022/11/07 00:26:34;;;;;;;19.20;12.48;;;9.90;99.90;;;;;;5155588;27;20188;-65
2022/11/07 00:29:00;;;;;;;28.52;13.25;;;10.30;99.90;;;;;;5155327;27;20035;-65
2022/11/07 00:31:26;;;;;;;22.33;12.88;;;11.20;99.90;;;;;;5155557;27;20065;-71
2022/11/07 00:33:51;;;;;;;22.83;12.88;;;10.20;99.90;;;;;;5155182;27;20134;-68
2022/11/07 00:36:24;;;;;;;23.27;12.25;;;10.60;99.90;;;;;;5155361;27;20083;-66
2022/11/07 00:38:50;;;;;;;29.48;12.70;;;10.40;99.90;;;;;;5155188;27;20067;-65
2022/11/07 00:41:16;;;;;;;23.55;11.10;;;10.50;99.90;;;;;;5155258;27;20047;-70
2022/11/07 00:43:42;;;;;;;20.42;11.15;;;10.00;99.90;;;;;;5155274;27;20049;-67
2022/11/07 00:46:09;;;;;;;24.98;11.48;;;10.70;99.90;;;;;;5155032;27;20046;-66
2022/11/07 00:48:35;;;;;;;21.02;11.88;;;10.50;99.90;;;;;;5155206;27;20402;-66
2022/11/07 00:51:11;;;;;;;21.95;11.18;;;10.10;99.90;;;;;;5155162;27;20044;-66
2022/11/07 00:53:37;;;;;;;25.40;11.00;;;10.40;99.90;;;;;;5154846;27;20046;-66
2022/11/07 00:56:05;;;;;;;23.75;11.57;;;10.80;99.90;;;;;;5154844;27;20103;-65
2022/11/07 00:58:32;;;;;;;17.45;10.57;;;10.30;99.90;;;;;;5154819;27;20129;-67
2022/11/07 01:00:58;;;;;;;22.25;10.77;;;10.10;99.90;;;;;;5154767;27;20042;-66
2022/11/07 01:06:09;;;;;;;18.27;12.00;;;10.20;99.90;;;;;;5154738;27;20401;-66
2022/11/07 01:08:35;;;;;;;24.00;10.82;;;10.80;99.90;;;;;;5154376;27;20043;-66
2022/11/07 01:11:04;;;;;;;27.27;11.43;;;10.50;99.90;;;;;;5154553;27;20053;-66
2022/11/07 01:13:30;;;;;;;22.10;10.63;;;10.50;99.90;;;;;;5135767;27;20619;-66
2022/11/07 01:15:55;;;;;;;21.98;11.77;;;10.40;99.90;;;;;;5154737;27;20133;-66
2022/11/07 01:18:21;;;;;;;16.25;10.60;;;10.60;99.90;;;;;;5154875;27;20125;-71
2022/11/07 01:20:48;;;;;;;22.83;11.27;;;10.30;99.90;;;;;;5154636;27;20068;-66
2022/11/07 01:23:14;;;;;;;23.40;11.07;;;10.30;99.90;;;;;;5154377;27;20057;-66
2022/11/07 01:25:40;;;;;;;24.83;10.55;;;10.30;99.90;;;;;;5154676;27;20049;-67
2022/11/07 01:28:07;;;;;;;21.33;10.48;;;10.40;99.90;;;;;;5154773;27;20103;-66
2022/11/07 01:30:36;;;;;;;17.98;9.38;;;10.50;99.90;;;;;;5154705;27;20432;-67
2022/11/07 01:33:02;;;;;;;22.10;10.65;;;10.60;99.90;;;;;;5154558;27;20053;-67
2022/11/07 01:35:27;;;;;;;22.88;10.10;;;10.60;99.90;;;;;;5154811;27;20125;-66
2022/11/07 01:37:53;;;;;;;24.15;9.70;;;10.50;99.90;;;;;;5154426;27;20051;-66
2022/11/07 01:40:19;;;;;;;27.00;10.07;;;11.30;99.90;;;;;;5135714;27;20091;-66
2022/11/07 01:42:45;;;;;;;;;;;10.10;99.90;;;;;;5154766;27;20531;-65
2022/11/07 01:45:32;;;;;;;21.77;9.10;;;10.70;99.90;;;;;;5154472;27;19919;-66
2022/11/07 01:48:00;;;;;;;17.77;8.07;;;10.50;99.90;;;;;;5154455;27;20085;-69
2022/11/07 01:50:27;;;;;;;22.02;8.45;;;10.80;99.90;;;;;;5154374;27;20490;-66
2022/11/07 01:52:53;;;;;;;;;;;10.60;99.90;;;;;;5154652;27;20089;-66
2022/11/07 01:55:27;;;;;;;18.27;8.63;;;10.60;99.90;;;;;;5154331;27;20017;-66
2022/11/07 01:57:57;;;;;;;23.35;8.70;;;10.30;99.90;;;;;;5154450;27;20268;-66
2022/11/07 02:00:24;;;;;;;17.38;9.10;;;10.70;99.90;;;;;;5154409;27;20121;-66
2022/11/07 02:02:59;;;;;;;22.48;8.52;;;10.50;99.90;;;;;;5154294;27;20047;-67
2022/11/07 02:05:33;;;;;;;18.77;8.18;;;10.60;99.90;;;;;;5153983;27;20039;-66
2022/11/07 02:08:01;;;;;;;21.27;9.32;;;10.30;99.90;;;;;;5154222;27;20039;-67
2022/11/07 02:10:28;;;;;;;18.13;9.65;;;10.50;99.90;;;;;;5154205;27;20096;-68
2022/11/07 02:12:57;;;;;;;23.45;9.52;;;10.70;99.90;;;;;;5154158;27;20459;-66
2022/11/07 02:15:25;;;;;;;24.48;10.10;;;10.80;99.90;;;;;;5154220;27;20078;-66
2022/11/07 02:17:51;;;;;;;23.85;10.55;;;10.70;99.90;;;;;;5154227;27;20130;-64
2022/11/07 02:20:17;;;;;;;27.23;10.88;;;10.60;99.90;;;;;;5153835;27;20047;-68
2022/11/07 02:23:04;;;;;;;23.52;11.20;;;10.30;99.90;;;;;;5155601;27;20491;-64
2022/11/07 02:25:30;;;;;;;23.00;9.48;;;10.80;99.90;;;;;;5158047;27;20043;-64
2022/11/07 02:28:00;;;;;;;19.48;10.00;;;10.10;99.90;;;;;;5157937;27;20197;-64
2022/11/07 02:30:29;;;;;;;17.55;9.20;;;10.80;99.90;;;;;;5157981;27;20043;-64
2022/11/07 02:32:55;;;;;;;25.17;10.10;;;10.60;99.90;;;;;;5157845;27;20049;-63
2022/11/07 02:35:43;;;;;;;24.45;10.55;;;10.90;99.90;;;;;;5157510;27;20038;-63
2022/11/07 02:38:36;;;;;;;26.85;11.13;;;10.60;99.90;;;;;;5157866;27;20402;-64
2022/11/07 02:41:10;;;;;;;27.15;10.32;;;10.70;99.90;;;;;;5153085;27;20402;-63
2022/11/07 02:43:41;;;;;;;20.60;10.27;;;10.40;99.90;;;;;;5157679;27;20046;-64
2022/11/07 02:46:10;;;;;;;27.67;9.95;;;10.40;99.90;;;;;;5157595;27;20043;-65
2022/11/07 02:48:43;;;;;;;29.13;10.15;;;10.50;99.90;;;;;;5122118;27;20179;-65
2022/11/07 02:51:09;;;;;;;24.20;9.43;;;11.30;99.90;;;;;;5157487;27;20403;-64
2022/11/07 02:53:34;;;;;;;24.80;8.80;;;10.70;99.90;;;;;;5157426;27;20035;-65
2022/11/07 02:56:00;;;;;;;23.75;8.45;;;10.70;99.90;;;;;;5157366;27;20497;-65
2022/11/07 02:58:26;;;;;;;22.90;7.88;;;10.20;99.90;;;;;;5157380;27;20049;-65
2022/11/07 03:00:52;;;;;;;23.92;8.07;;;10.30;99.90;;;;;;5157394;27;20365;-65
2022/11/07 03:03:17;;;;;;;20.45;8.30;;;11.80;99.90;;;;;;5157096;27;20371;-64
2022/11/07 03:05:43;;;;;;;21.15;8.07;;;9.80;99.90;;;;;;5157230;27;20134;-65
2022/11/07 03:08:08;;;;;;;27.65;7.75;;;10.20;99.90;;;;;;5157192;27;20092;-63
2022/11/07 03:10:34;;;;;;;20.98;8.15;;;11.20;99.90;;;;;;5157032;27;20099;-64
2022/11/07 03:13:00;;;;;;;21.40;8.43;;;10.30;99.90;;;;;;5157021;27;20049;-64
2022/11/07 03:15:26;;;;;;;21.15;8.38;;;10.60;99.90;;;;;;5156926;27;20482;-64
2022/11/07 03:17:52;;;;;;;26.00;9.00;;;11.10;99.90;;;;;;5156609;27;20099;-63
2022/11/07 03:20:18;;;;;;;18.75;7.85;;;10.30;99.90;;;;;;5156877;27;20134;-66
2022/11/07 03:22:46;;;;;;;25.40;7.00;;;9.80;99.90;;;;;;5138039;27;20042;-64
2022/11/07 03:25:11;;;;;;;16.40;6.03;;;10.20;99.90;;;;;;5156892;27;20096;-64
2022/11/07 03:27:48;;;;;;;19.75;7.05;;;11.60;99.90;;;;;;5156891;27;20078;-63
2022/11/07 03:30:14;;;;;;;22.23;7.80;;;10.90;99.90;;;;;;5156809;27;20070;-65
2022/11/07 03:32:39;;;;;;;19.58;7.53;;;10.20;99.90;;;;;;5156341;27;20043;-64
2022/11/07 03:35:06;;;;;;;17.60;7.07;;;11.00;99.90;;;;;;5156335;27;20094;-63
2022/11/07 03:37:31;;;;;;;18.02;7.70;;;10.80;99.90;;;;;;5156654;27;20102;-63
2022/11/07 03:39:57;;;;;;;22.15;9.02;;;11.20;99.90;;;;;;5156314;27;20055;-64
2022/11/07 03:42:23;;;;;;;19.50;8.60;;;10.20;99.90;;;;;;5156541;27;20051;-67
2022/11/07 03:44:48;;;;;;;16.83;7.20;;;10.30;99.90;;;;;;5156480;27;20038;-65
2022/11/07 03:47:14;;;;;;;15.43;6.55;;;10.00;99.90;;;;;;5156107;27;20098;-65
2022/11/07 03:49:40;;;;;;;20.33;7.40;;;10.90;99.90;;;;;;5156389;27;20110;-64
2022/11/07 03:52:05;;;;;;;19.60;7.55;;;10.30;99.90;;;;;;5137807;27;20508;-64
2022/11/07 03:54:31;;;;;;;23.75;7.10;;;10.70;99.90;;;;;;5156210;27;20436;-64
2022/11/07 03:56:57;;;;;;;18.58;6.85;;;10.40;99.90;;;;;;5156148;27;20466;-63
2022/11/07 03:59:22;;;;;;;20.20;6.93;;;10.10;99.90;;;;;;5156210;27;20398;-65
2022/11/07 04:01:48;;;;;;;18.80;6.85;;;10.40;99.90;;;;;;5156019;27;20133;-64
2022/11/07 04:04:14;;;;;;;23.08;7.85;;;10.30;99.90;;;;;;5156137;27;20082;-66
2022/11/07 04:06:40;;;;;;;19.80;6.85;;;11.10;99.90;;;;;;5155984;27;20045;-66
2022/11/07 04:09:05;;;;;;;16.90;6.15;;;11.00;99.90;;;;;;5137550;27;20051;-65
2022/11/07 04:17:17;;;;;;;14.40;4.78;;;10.00;99.90;;;;;;5155562;27;20133;-67
2022/11/07 04:19:44;;;;;;;17.00;4.95;;;10.30;99.90;;;;;;5155815;27;20046;-66
2022/11/07 04:22:10;;;;;;;20.95;4.63;;;10.80;99.90;;;;;;5155744;27;20043;-67
2022/11/07 04:24:35;;;;;;;26.08;6.10;;;10.40;99.90;;;;;;5137165;27;20047;-65
2022/11/07 04:30:17;;;;;;;;;;;10.80;99.90;;;;;;5109575;27;20053;-65
2022/11/07 04:32:44;;;;;;;23.70;5.10;;;10.60;99.90;;;;;;5155590;27;19919;-65
2022/11/07 04:35:09;;;;;;;23.75;5.90;;;10.80;99.90;;;;;;5136985;27;20047;-66
2022/11/07 04:37:35;;;;;;;20.23;5.90;;;10.20;99.90;;;;;;5155702;27;20054;-67
2022/11/07 04:40:00;;;;;;;22.42;5.60;;;11.20;99.90;;;;;;5155196;27;20062;-66
2022/11/07 04:42:26;;;;;;;22.35;5.40;;;10.40;99.90;;;;;;5155709;27;20129;-65
2022/11/07 04:44:52;;;;;;;23.50;6.03;;;10.80;99.90;;;;;;5154392;27;20078;-65
2022/11/07 04:47:17;;;;;;;21.50;5.45;;;10.40;99.90;;;;;;5155264;27;20046;-66
2022/11/07 04:49:43;;;;;;;19.98;5.28;;;10.60;99.90;;;;;;5136726;27;20154;-66
2022/11/07 04:52:10;;;;;;;22.02;6.18;;;10.50;99.90;;;;;;5136649;27;20089;-67
2022/11/07 04:54:35;;;;;;;23.25;6.28;;;10.60;99.90;;;;;;5154742;27;20390;-66
2022/11/07 04:57:01;;;;;;;22.77;5.90;;;10.60;99.90;;;;;;5155370;27;20126;-66
2022/11/07 04:59:27;;;;;;;23.80;6.38;;;10.90;99.90;;;;;;5154773;27;20050;-66
2022/11/07 05:01:52;;;;;;;18.25;6.03;;;10.70;99.90;;;;;;5155128;27;20471;-68
2022/11/07 05:04:18;;;;;;;22.92;6.40;;;11.20;99.90;;;;;;5154985;27;20039;-65
2022/11/07 05:06:44;;;;;;;18.83;5.63;;;10.80;99.90;;;;;;5155165;27;20046;-66
2022/11/07 05:09:14;;;;;;;24.20;6.85;;;;;;;;;;5136436;27;20129;-67
2022/11/07 05:11:40;;;;;;;23.67;7.10;;;11.10;99.90;;;;;;5154922;27;20050;-67
2022/11/07 05:14:05;;;;;;;21.35;6.68;;;10.30;99.90;;;;;;5154542;27;20098;-66
2022/11/07 05:16:33;;;;;;;18.70;5.90;;;10.50;99.90;;;;;;5154899;27;20432;-65
2022/11/07 05:18:59;;;;;;;13.60;5.65;;;10.20;99.90;;;;;;5154736;27;20046;-65
2022/11/07 05:21:24;;;;;;;22.83;6.38;;;10.80;99.90;;;;;;5154351;27;20050;-66
2022/11/07 05:23:50;;;;;;;23.98;6.35;;;11.10;99.90;;;;;;5154791;27;20038;-65
2022/11/07 05:26:16;;;;;;;22.63;6.80;;;10.90;99.90;;;;;;5154700;27;20456;-65
2022/11/07 05:28:42;;;;;;;20.02;5.97;;;10.20;99.90;;;;;;5154376;27;20067;-65
2022/11/07 05:31:13;;;;;;;22.88;6.75;;;10.30;99.90;;;;;;5154618;27;20039;-65
2022/11/07 05:33:39;;;;;;;18.65;5.35;;;10.80;99.90;;;;;;5154520;27;20082;-68
2022/11/07 05:36:14;;;;;;;22.95;5.90;;;11.20;99.90;;;;;;5136082;27;20134;-66
2022/11/07 05:38:42;;;;;;;16.65;5.55;;;10.30;99.90;;;;;;5154519;27;20084;-66
2022/11/07 05:41:08;;;;;;;20.38;5.43;;;10.50;99.90;;;;;;5154333;27;20483;-65
2022/11/07 05:43:33;;;;;;;22.92;6.38;;;10.20;99.90;;;;;;5154177;27;20079;-65
2022/11/07 05:46:00;;;;;;;16.73;5.65;;;11.30;99.90;;;;;;5154726;27;20158;-65
2022/11/07 05:48:25;;;;;;;17.65;5.80;;;10.20;99.90;;;;;;5154389;27;20039;-65
2022/11/07 05:50:51;;;;;;;17.17;5.22;;;10.70;99.90;;;;;;5154390;27;20043;-65
2022/11/07 05:53:19;;;;;;;23.20;5.90;;;10.60;99.90;;;;;;5154346;27;20078;-66
2022/11/07 05:55:46;;;;;;;17.50;5.95;;;10.90;99.90;;;;;;5154071;27;20514;-65
2022/11/07 05:58:12;;;;;;;23.88;5.78;;;10.40;99.90;;;;;;5158058;27;20105;-66
2022/11/07 06:00:38;;;;;;;23.45;6.15;;;10.00;99.90;;;;;;5158437;27;20048;-65
2022/11/07 06:03:04;;;;;;;18.10;5.43;;;11.00;99.90;;;;;;5140042;27;20046;-65
2022/11/07 06:05:30;;;;;;;22.15;6.28;;;10.50;99.90;;;;;;5140131;27;20043;-66
2022/11/07 06:07:56;;;;;;;23.17;6.25;;;10.70;99.90;;;;;;5158316;27;20046;-64
2022/11/07 06:10:21;;;;;;;18.05;5.78;;;11.20;99.90;;;;;;5158342;27;20148;-64
2022/11/07 06:12:57;;;;;;;14.90;5.85;;;10.80;99.90;;;;;;5157924;27;20094;-64
2022/11/07 06:15:22;;;;;;;23.85;6.55;;;11.00;99.90;;;;;;5158172;27;20043;-64
2022/11/07 06:17:48;;;;;;;23.83;5.45;;;10.70;99.90;;;;;;5158171;27;20046;-64
2022/11/07 06:20:14;;;;;;;15.88;5.85;;;10.60;99.90;;;;;;5158405;27;20065;-64
2022/11/07 06:22:40;;;;;;;19.85;5.15;;;10.20;99.90;;;;;;5158053;27;20050;-65
2022/11/07 06:25:05;;;;;;;19.40;5.25;;;10.30;99.90;;;;;;5158115;27;20541;-67
2022/11/07 06:27:31;;;;;;;14.18;5.70;;;9.80;99.90;;;;;;5157753;27;20077;-65
2022/11/07 06:29:57;;;;;;;18.48;5.45;;;10.30;99.90;;;;;;5158002;27;20043;-65
2022/11/07 06:32:22;;;;;;;17.52;5.03;;;10.20;99.90;;;;;;5139722;27;20039;-66
2022/11/07 06:34:48;;;;;;;20.10;6.43;;;10.10;99.90;;;;;;5157815;27;20466;-65
2022/11/07 06:37:14;;;;;;;16.00;5.55;;;10.10;99.90;;;;;;5157774;27;20125;-66
2022/11/07 06:39:40;;;;;;;26.80;6.25;;;10.40;99.90;;;;;;5157582;27;20034;-65
2022/11/07 06:42:05;;;;;;;18.83;6.07;;;10.00;99.90;;;;;;5157033;27;20509;-67
2022/11/07 06:44:31;;;;;;;16.85;6.00;;;10.80;99.90;;;;;;5157693;27;20050;-66
2022/11/07 06:46:57;;;;;;;16.80;5.78;;;9.90;99.90;;;;;;5157284;27;20070;-67
2022/11/07 06:49:23;;;;;;;17.15;6.18;;;9.90;99.90;;;;;;5157511;27;20074;-65
2022/11/07 06:51:48;;;;;;;19.63;6.28;;;10.90;99.90;;;;;;5157474;27;20038;-66
2022/11/07 06:54:14;;;;;;;17.80;5.63;;;10.40;99.90;;;;;;5157670;27;20130;-66
2022/11/07 06:56:40;;;;;;;14.70;5.90;;;10.60;99.90;;;;;;5157132;27;20031;-66
2022/11/07 07:04:22;;;;;;;17.65;6.00;;;10.10;99.90;;;;;;5151681;27;20107;-65
2022/11/07 07:06:48;;;;;;;18.95;6.32;;;10.50;99.90;;;;;;5131139;28;20142;-66
2022/11/07 07:09:14;;;;;;;14.10;6.30;;;10.50;99.90;;;;;;5131072;28;20051;-65
2022/11/07 07:11:41;;;;;;;12.10;6.03;;;10.50;99.90;;;;;;5130685;28;20047;-65
2022/11/07 07:14:07;;;;;;;17.63;6.18;;;10.00;99.90;;;;;;5121381;28;20441;-66
2022/11/07 07:16:32;;;;;;;21.25;6.00;;;10.00;99.90;;;;;;5129938;28;20057;-67
2022/11/07 07:18:58;;;;;;;18.63;6.90;;;10.70;99.90;;;;;;5130236;28;20096;-66
2022/11/07 07:21:25;;;;;;;18.10;6.80;;;10.10;99.90;;;;;;5129864;28;20052;-66
2022/11/07 07:23:50;;;;;;;23.63;7.40;;;10.50;99.90;;;;;;5129198;28;20047;-66
2022/11/07 07:26:16;;;;;;;17.33;6.07;;;10.90;99.90;;;;;;5122142;27;20055;-82
2022/11/07 07:28:43;;;;;;;18.23;6.95;;;10.40;99.90;;;;;;5110694;28;20074;-66
2022/11/07 07:31:14;;;;;;;19.33;6.75;;;10.70;99.90;;;;;;5129556;28;20079;-67
2022/11/07 07:33:45;;;;;;;17.75;7.20;;;10.60;99.90;;;;;;5129462;28;20043;-66
2022/11/07 07:36:12;;;;;;;16.88;7.07;;;11.10;99.90;;;;;;5111586;28;20056;-67
2022/11/07 07:38:38;;;;;;;19.88;7.78;;;10.60;99.90;;;;;;5129796;28;20143;-73
2022/11/07 07:41:04;;;;;;;22.80;8.35;;;10.50;99.90;;;;;;5129481;28;20050;-68
2022/11/07 07:43:29;;;;;;;23.95;7.80;;;10.50;99.90;;;;;;5109420;28;20093;-67
2022/11/07 07:46:03;;;;;;;16.10;7.80;;;10.90;99.90;;;;;;5109510;28;20130;-66
2022/11/07 07:48:30;;;;;;;23.42;9.25;;;10.70;99.90;;;;;;5129263;28;20039;-66
2022/11/07 07:50:56;;;;;;;18.85;8.80;;;10.70;99.90;;;;;;5129937;28;20054;-66
2022/11/07 07:53:22;;;;;;;25.42;9.80;;;11.20;99.90;;;;;;5129378;28;20126;-67
2022/11/07 07:55:48;;;;;;;20.38;9.88;;;10.50;99.90;;;;;;5129217;28;20176;-71
2022/11/07 07:58:14;;;;;;;21.23;9.65;;;10.90;99.90;;;;;;5129349;28;20050;-66
2022/11/07 08:00:40;;;;;;;22.65;10.32;;;11.20;99.90;;;;;;5129284;28;20540;-67
2022/11/07 08:03:10;;;;;;;23.23;10.13;;;10.80;99.90;;;;;;5129172;28;20054;-67
2022/11/07 08:05:37;;;;;;;25.55;10.32;;;10.70;99.90;;;;;;5129576;28;20043;-69
2022/11/07 08:08:04;;;;;;;16.20;8.85;;;11.50;99.90;;;;;;5129045;28;20102;-70
2022/11/07 08:10:30;;;;;;;21.67;9.32;;;10.80;99.90;;;;;;5129226;28;20083;-73
2022/11/07 08:12:56;;;;;;;21.25;9.60;;;10.90;99.90;;;;;;5128952;28;20487;-66
2022/11/07 08:15:22;;;;;;;29.92;9.80;;;10.90;99.90;;;;;;5117752;28;20044;-69
2022/11/07 08:17:48;;;;;;;24.48;9.45;;;11.20;99.90;;;;;;5115431;28;20100;-66
2022/11/07 08:20:18;;;;;;;22.17;9.05;;;11.20;99.90;;;;;;5114953;28;20206;-67
2022/11/07 08:22:44;;;;;;;24.92;9.25;;;11.40;99.90;;;;;;5115045;28;20468;-68
2022/11/07 08:25:10;;;;;;;28.02;10.35;;;10.90;99.90;;;;;;5115467;28;20075;-68
2022/11/07 08:27:36;;;;;;;27.30;10.50;;;11.30;99.90;;;;;;5114133;28;20417;-67
2022/11/07 08:30:04;;;;;;;26.88;10.38;;;11.10;99.90;;;;;;5115252;28;20048;-70
2022/11/07 08:32:30;;;;;;;22.00;9.43;;;11.10;99.90;;;;;;5114997;28;20104;-68
2022/11/07 08:34:56;;;;;;;25.73;10.35;;;11.10;99.90;;;;;;5096484;28;20040;-67
2022/11/07 08:37:22;;;;;;;31.08;10.52;;;11.00;99.90;;;;;;5095693;28;20134;-70
2022/11/07 08:39:47;;;;;;;27.60;10.13;;;11.00;99.90;;;;;;5114119;28;20051;-68
2022/11/07 08:42:14;;;;;;;32.70;10.55;;;10.80;99.90;;;;;;5115578;28;20048;-67
2022/11/07 08:44:40;;;;;;;26.88;11.02;;;11.60;99.90;;;;;;5115520;28;20100;-67
2022/11/07 08:47:06;;;;;;;21.67;10.40;;;10.80;99.90;;;;;;5115420;28;20134;-67
2022/11/07 08:49:32;;;;;;;32.47;10.35;;;11.30;99.90;;;;;;5115470;28;20112;-67
2022/11/07 08:51:58;;;;;;;26.85;10.25;;;11.50;99.90;;;;;;5115149;28;20048;-67
2022/11/07 08:54:29;;;;;;;25.15;10.70;;;11.00;99.90;;;;;;5115339;28;20048;-67
2022/11/07 08:56:55;;;;;;;26.25;10.90;;;11.00;99.90;;;;;;5097027;28;20492;-67
2022/11/07 08:59:21;;;;;;;28.38;10.82;;;11.10;99.90;;;;;;5115254;28;20046;-66
2022/11/07 09:01:47;;;;;;;29.90;10.57;;;11.30;99.90;;;;;;5115214;28;20052;-67
2022/11/07 09:04:13;;;;;;;30.40;10.52;;;10.90;99.90;;;;;;5115227;28;20048;-67
2022/11/07 09:06:39;;;;;;;24.92;10.18;;;11.60;99.90;;;;;;5115169;28;20479;-68
2022/11/07 09:09:04;;;;;;;31.70;11.40;;;12.10;99.90;;;;;;5114969;28;20055;-68
2022/11/07 09:11:30;;;;;;;27.92;10.85;;;11.70;99.90;;;;;;5115103;28;20082;-67
2022/11/07 09:13:56;;;;;;;27.40;9.85;;;11.00;99.90;;;;;;5115000;28;20083;-67
2022/11/07 09:16:22;;;;;;;30.55;11.00;;;12.20;99.90;;;;;;5114623;28;20518;-67
2022/11/07 09:18:50;;;;;;;28.40;11.98;;;11.20;99.90;;;;;;5114963;28;20100;-68
2022/11/07 09:21:17;;;;;;;25.15;9.52;;;12.10;99.90;;;;;;5114597;28;20047;-67
2022/11/07 09:23:43;;;;;;;30.85;10.40;;;11.60;99.90;;;;;;5114801;28;20044;-68
2022/11/07 09:26:09;;;;;;;25.13;9.93;;;11.50;99.90;;;;;;5113819;28;20047;-67
2022/11/07 09:28:35;;;;;;;26.27;9.45;;;11.20;99.90;;;;;;5114770;28;20169;-67
2022/11/07 09:31:03;;;;;;;21.35;9.63;;;11.30;99.90;;;;;;5115027;28;20130;-68
2022/11/07 09:33:29;;;;;;;22.27;9.55;;;11.00;99.90;;;;;;5114625;28;20047;-67
2022/11/07 09:35:57;;;;;;;;;;;11.20;99.90;;;;;;5114495;28;20499;-67
2022/11/07 09:38:23;;;;;;;23.55;8.55;;;10.90;99.90;;;;;;5114611;28;19924;-67
2022/11/07 09:41:04;;;;;;;25.08;8.63;;;11.20;99.90;;;;;;5114489;28;20067;-67
2022/11/07 09:44:03;;;;;;;24.75;9.80;;;12.10;99.90;;;;;;5114472;28;20059;-65
2022/11/07 09:46:54;;;;;;;26.30;8.38;;;11.40;99.90;;;;;;5114517;28;20047;-65
2022/11/07 09:49:29;;;;;;;27.20;8.57;;;11.90;99.90;;;;;;5114127;28;20118;-66
2022/11/07 09:52:14;;;;;;;24.92;7.97;;;11.40;99.90;;;;;;5114429;28;20490;-66
2022/11/07 09:54:44;;;;;;;24.73;8.05;;;11.80;99.90;;;;;;5114089;28;20514;-66
2022/11/07 09:57:16;;;;;;;27.02;9.02;;;11.60;99.90;;;;;;5114583;28;20054;-66
2022/11/07 10:00:04;;;;;;;25.95;7.22;;;12.40;99.90;;;;;;5114184;28;20048;-65
2022/11/07 10:02:32;;;;;;;24.52;6.70;;;12.20;99.90;;;;;;5113917;28;20043;-66
2022/11/07 10:05:02;;;;;;;26.25;8.10;;;11.50;99.90;;;;;;5113787;28;20062;-67
2022/11/07 10:07:53;;;;;;;27.30;8.07;;;11.50;99.90;;;;;;5114044;28;20467;-68
2022/11/07 10:10:37;;;;;;;23.33;7.53;;;11.70;99.90;;;;;;5113977;28;20127;-68
2022/11/07 10:13:27;;;;;;;23.10;7.82;;;11.40;99.90;;;;;;5114062;28;20048;-67
2022/11/07 10:16:02;;;;;;;19.15;7.55;;;11.90;99.90;;;;;;5113901;28;20043;-67
2022/11/07 10:18:41;;;;;;;21.92;7.50;;;11.80;99.90;;;;;;5113612;28;20048;-66
2022/11/07 10:21:27;;;;;;;22.60;6.93;;;11.60;99.90;;;;;;5113810;28;20047;-66
2022/11/07 10:24:08;;;;;;;21.85;7.32;;;11.70;99.90;;;;;;5113831;28;20460;-68
2022/11/07 10:26:35;;;;;;;22.08;7.55;;;12.20;99.90;;;;;;5113402;28;20047;-67
2022/11/07 10:29:12;;;;;;;15.27;6.97;;;11.80;99.90;;;;;;5106957;28;20047;-67
2022/11/07 10:31:43;;;;;;;20.13;7.10;;;12.00;99.90;;;;;;5112718;28;20047;-69
2022/11/07 10:34:27;;;;;;;23.08;6.80;;;12.00;99.90;;;;;;5112436;28;20047;-68
2022/11/07 10:36:52;;;;;;;20.13;6.50;;;12.10;99.90;;;;;;5112269;28;20048;-66
2022/11/07 10:39:19;;;;;;;18.92;6.40;;;11.80;99.90;;;;;;5112874;28;20371;-70
2022/11/07 10:42:14;;;;;;;22.45;6.22;;;12.20;99.90;;;;;;5112546;28;20048;-69
2022/11/07 10:44:41;;;;;;;17.85;6.22;;;11.90;99.90;;;;;;5103434;28;20055;-67
2022/11/07 10:47:33;;;;;;;18.60;5.75;;;12.40;99.90;;;;;;5094411;28;20079;-76
2022/11/07 10:50:02;;;;;;;19.63;6.72;;;12.20;99.90;;;;;;5107293;28;20131;-67
2022/11/07 10:52:28;;;;;;;25.60;6.45;;;12.20;99.90;;;;;;5094483;28;20044;-69
2022/11/07 10:55:14;;;;;;;19.77;5.40;;;12.10;99.90;;;;;;5102509;28;20651;-66
2022/11/07 10:57:41;;;;;;;17.90;5.88;;;12.20;99.90;;;;;;5111490;28;20059;-66
2022/11/07 11:00:35;;;;;;;22.13;5.30;;;12.30;99.90;;;;;;5088854;28;20097;-66
2022/11/07 11:03:00;;;;;;;17.70;5.47;;;12.20;99.90;;;;;;5094046;28;20082;-65
2022/11/07 11:05:31;;;;;;;19.75;5.32;;;12.70;99.90;;;;;;5111039;28;20051;-65
2022/11/07 11:08:12;;;;;;;20.88;5.70;;;12.50;99.90;;;;;;5112178;28;20047;-64
2022/11/07 11:10:38;;;;;;;19.95;5.38;;;12.60;99.90;;;;;;5112706;28;20056;-64
2022/11/07 11:13:05;;;;;;;19.83;5.50;;;12.70;99.90;;;;;;5112487;28;20079;-65
2022/11/07 11:15:41;;;;;;;14.55;5.03;;;12.90;99.90;;;;;;5112633;28;20051;-68
2022/11/07 11:18:15;;;;;;;17.00;5.50;;;13.00;99.90;;;;;;5112390;28;20183;-67
2022/11/07 11:21:01;;;;;;;18.27;5.28;;;12.80;99.90;;;;;;5112574;28;20051;-66
2022/11/07 11:23:35;;;;;;;18.67;5.97;;;12.70;99.90;;;;;;5077407;28;20119;-65
2022/11/07 11:26:05;;;;;;;20.27;4.93;;;13.20;99.90;;;;;;5078075;28;20087;-67
2022/11/07 11:28:47;;;;;;;22.00;5.93;;;12.90;99.90;;;;;;5094351;28;20040;-65
2022/11/07 11:31:34;;;;;;;17.95;5.35;;;13.30;99.90;;;;;;5112083;28;20050;-66
2022/11/07 11:34:09;;;;;;;;;;;13.10;99.90;;;;;;5112798;28;20050;-68
2022/11/07 11:36:40;;;;;;;16.13;4.70;;;13.10;99.90;;;;;;5109642;28;19977;-68
2022/11/07 11:39:25;;;;;;;19.15;5.40;;;12.70;99.90;;;;;;5110362;28;20083;-69
2022/11/07 11:41:56;;;;;;;19.70;5.25;;;12.90;99.90;;;;;;5092987;28;20047;-67
2022/11/07 11:44:38;;;;;;;19.40;5.57;;;13.00;99.90;;;;;;5110875;28;20036;-67
2022/11/07 11:47:21;;;;;;;23.15;6.13;;;13.10;99.90;;;;;;5110533;28;20124;-67
2022/11/07 11:49:59;;;;;;;15.63;5.20;;;13.40;99.90;;;;;;5094473;28;20096;-68
2022/11/07 11:52:27;;;;;;;20.55;6.10;;;12.90;99.90;;;;;;5114218;28;20518;-70
2022/11/07 11:54:55;;;;;;;22.23;5.97;;;12.70;99.90;;;;;;5096527;28;20120;-77
2022/11/07 11:57:55;;;;;;;23.20;5.93;;;12.80;99.90;;;;;;5114641;28;20043;-67
2022/11/07 12:00:23;;;;;;;17.88;6.35;;;13.00;99.90;;;;;;5114788;28;20494;-69
2022/11/07 12:03:01;;;;;;;18.75;6.95;;;13.10;99.90;;;;;;5114524;28;20056;-68
2022/11/07 12:05:54;;;;;;;17.42;5.85;;;13.20;99.90;;;;;;5114136;28;20384;-72
2022/11/07 12:08:30;;;;;;;19.25;5.30;;;13.10;99.90;;;;;;5114518;28;20496;-68
2022/11/07 12:11:04;;;;;;;17.48;5.68;;;13.50;99.90;;;;;;5114835;28;20126;-69
2022/11/07 12:13:39;;;;;;;24.67;5.82;;;13.30;99.90;;;;;;5114553;28;20051;-70
2022/11/07 12:16:25;;;;;;;19.25;5.35;;;13.20;99.90;;;;;;5114085;28;20047;-70
2022/11/07 12:19:09;;;;;;;19.97;5.73;;;13.50;99.90;;;;;;5114570;28;20108;-69
2022/11/07 12:22:06;;;;;;;21.50;6.10;;;13.10;99.90;;;;;;5113876;28;20056;-70
2022/11/07 12:24:50;;;;;;;19.52;5.78;;;13.10;99.90;;;;;;5058276;28;20051;-70
2022/11/07 12:27:38;;;;;;;16.45;5.70;;;13.00;99.90;;;;;;5096010;28;20047;-69
2022/11/07 12:30:21;;;;;;;21.25;5.82;;;13.40;99.90;;;;;;5114342;28;20251;-69
2022/11/07 12:33:02;;;;;;;16.23;6.05;;;13.80;99.90;;;;;;5114149;28;20059;-69
2022/11/07 12:35:45;;;;;;;16.30;5.60;;;13.70;99.90;;;;;;5113836;28;20054;-72
2022/11/07 12:38:32;;;;;;;15.82;5.50;;;14.00;99.90;;;;;;5114330;28;20105;-67
2022/11/07 12:41:01;;;;;;;17.15;5.15;;;13.90;99.90;;;;;;5114145;28;20097;-68
2022/11/07 12:43:40;;;;;;;16.02;4.97;;;13.70;99.90;;;;;;5113261;28;20051;-71
2022/11/07 12:46:12;;;;;;;12.25;5.85;;;14.00;99.90;;;;;;5095832;28;20526;-67
2022/11/07 12:49:19;;;;;;;19.50;5.25;;;13.70;99.90;;;;;;5113978;28;20066;-68
2022/11/07 12:52:23;;;;;;;17.75;5.53;;;13.40;99.90;;;;;;5111957;28;20044;-67
2022/11/07 12:55:11;;;;;;;17.45;4.50;;;13.80;99.90;;;;;;5113963;28;20053;-69
2022/11/07 12:57:38;;;;;;;14.23;5.03;;;13.90;99.90;;;;;;5113412;28;20548;-80
2022/11/07 13:00:24;;;;;;;14.10;4.60;;;13.90;99.90;;;;;;5113813;28;20047;-74
2022/11/07 13:03:05;;;;;;;10.90;4.07;;;14.10;99.90;;;;;;5113320;28;20059;-67
2022/11/07 13:05:45;;;;;;;17.80;5.10;;;13.60;99.90;;;;;;5113197;28;20453;-71
2022/11/07 13:08:32;;;;;;;14.73;4.95;;;13.80;99.90;;;;;;5113801;28;20451;-69